Vidfoss — V2QK4 — position and weather

sailwx.info

Track history (hours):
 
Tides and Currents Weather Stations Pressure Air Temp Water Temp Dewpoint Dewpoint Depression Visibility Wind Speed Wind Dir Waves Ship Positions

Vidfoss

Last reported at 2015-Aug-01 15:32 UTC. Time now 2015-Aug-01 16:16 UTC.
Position N 52°28' E 004°40'.

Length 93 m; draft 5.2 m.

Type: Cargo ship. MMSI: 305846000.

Date/timePositionNaut miles runAvg speedWind from/ knotsBaromVisibWave heightAir tempDewpointWater temp
2015-Aug-01 15:32N 52°28' E 004°40'0 0.0
2015-Aug-01 14:33N 52°28' E 004°40'0 0.0
2015-Aug-01 13:33N 52°28' E 004°40'0 0.0
2015-Aug-01 12:31N 52°28' E 004°40'0 0.0
2015-Aug-01 11:32N 52°28' E 004°40'0 0.0
2015-Aug-01 10:29N 52°28' E 004°40'0 0.0
2015-Aug-01 09:33N 52°28' E 004°40'2 2.1
2015-Aug-01 08:33N 52°28' E 004°36'7 6.9
2015-Aug-01 07:34N 52°28' E 004°25'1212.3
2015-Aug-01 06:33N 52°28' E 004°05'8011.5
2015-Jul-31 23:33N 52°53' E 001°59'1111.5
2015-Jul-31 22:34N 52°59' E 001°42'1212.3
2015-Jul-31 21:33N 53°06' E 001°25'5112.7
2015-Jul-31 17:33N 53°32' E 000°13'9 9.1
2015-Jul-31 16:33N 53°35' W 000°01'2 1.9
2015-Jul-31 15:33N 53°35' W 000°04'0 0.0
2015-Jul-31 14:33N 53°35' W 000°04'0 0.0
2015-Jul-31 13:31N 53°35' W 000°04'0 0.0
2015-Jul-31 12:32N 53°35' W 000°04'0 0.0
2015-Jul-31 11:32N 53°35' W 000°04'0 0.0
2015-Jul-31 10:33N 53°35' W 000°04'0 0.0
2015-Jul-31 09:31N 53°35' W 000°04'0 0.0
2015-Jul-31 08:32N 53°35' W 000°04'0 0.0
2015-Jul-31 07:32N 53°35' W 000°04'0 0.0
2015-Jul-31 06:30N 53°35' W 000°04'0 0.0
2015-Jul-31 05:33N 53°35' W 000°04'0 0.0
2015-Jul-31 04:31N 53°35' W 000°04'0 0.0
2015-Jul-31 03:32N 53°35' W 000°04'0 0.0
2015-Jul-31 02:32N 53°35' W 000°04'0 0.0
2015-Jul-31 01:30N 53°35' W 000°04'0 0.0
2015-Jul-31 00:31N 53°35' W 000°04'0 0.0
2015-Jul-30 23:31N 53°35' W 000°04'0 0.0
2015-Jul-30 22:32N 53°35' W 000°04'0 0.0
2015-Jul-30 21:33N 53°35' W 000°04'0 0.0
2015-Jul-30 20:34N 53°35' W 000°04'0 0.0
2015-Jul-30 19:31N 53°35' W 000°04'0 0.0
2015-Jul-30 18:32N 53°35' W 000°04'0 0.0
2015-Jul-30 17:32N 53°35' W 000°04'0 0.0
2015-Jul-30 16:33N 53°35' W 000°04'0 0.4
2015-Jul-30 15:33N 53°35' W 000°04'6 6.1
2015-Jul-30 14:33N 53°34' E 000°06'8 8.2
2015-Jul-30 13:33N 53°36' E 000°19'9 8.6
2015-Jul-30 12:33N 53°45' E 000°23'1010.1
2015-Jul-30 11:33N 53°55' E 000°24'1110.6
2015-Jul-30 10:33N 54°05' E 000°26'6 5.8
2015-Jul-30 09:32N 54°11' E 000°31'  
2015-Jul-27 03:14N 66°36' E 011°44'244 9.2
2015-Jul-26 00:33N 69°39' E 018°58'1 0.6
2015-Jul-25 23:33N 69°39' E 018°58'0 0.0
2015-Jul-25 22:33N 69°39' E 018°58'0 0.0
2015-Jul-25 21:33N 69°39' E 018°58'0 0.0
2015-Jul-25 20:33N 69°39' E 018°58'0 0.0
2015-Jul-25 19:33N 69°39' E 018°58'0 0.0
2015-Jul-25 18:33N 69°39' E 018°58'0 0.0
2015-Jul-25 17:33N 69°39' E 018°58'0 0.0
2015-Jul-25 16:33N 69°39' E 018°58'0 0.0
2015-Jul-25 15:33N 69°39' E 018°58'2 1.9
2015-Jul-25 14:33N 69°38' E 018°57'0 0.0
2015-Jul-25 13:33N 69°38' E 018°57'0 0.0
2015-Jul-25 12:33N 69°38' E 018°57'0 0.0
2015-Jul-25 11:33N 69°38' E 018°57'0 0.0
2015-Jul-25 10:33N 69°38' E 018°57'0 0.0
2015-Jul-25 09:33N 69°38' E 018°57'0 0.0
2015-Jul-25 08:33N 69°38' E 018°57'0 0.0
2015-Jul-25 07:33N 69°38' E 018°57'0 0.0
2015-Jul-25 06:33N 69°38' E 018°57'0 0.0
2015-Jul-25 05:33N 69°38' E 018°57'0 0.0
2015-Jul-25 04:33N 69°38' E 018°57'0 0.0
2015-Jul-25 03:33N 69°38' E 018°57'0 0.0
2015-Jul-25 02:33N 69°38' E 018°57'0 0.0
2015-Jul-25 01:33N 69°38' E 018°57'0 0.0
2015-Jul-25 00:33N 69°38' E 018°57'2 0.0
2015-Jul-23 15:33N 69°39' E 018°59'147 9.0
2015-Jul-22 23:16N 67°50' E 014°26'2011.8
2015-Jul-22 21:33N 67°30' E 014°23'1111.6
2015-Jul-22 20:34N 67°18' E 014°17'1312.6
2015-Jul-22 19:34N 67°08' E 014°01'1212.4
2015-Jul-22 18:34N 66°59' E 013°37'  
Track history (hours):
 
Tides and Currents Weather Stations Pressure Air Temp Water Temp Dewpoint Dewpoint Depression Visibility Wind Speed Wind Dir Waves Ship Positions

Vidfoss

Last reported at 2015-Aug-01 15:32 UTC. Time now 2015-Aug-01 16:16 UTC.
Position N 52°28' E 004°40'.

Length 93 m; draft 5.2 m.

Type: Cargo ship. MMSI: 305846000.

Date/timePositionNaut miles runAvg speedWind from/ knotsBaromVisibWave heightAir tempDewpointWater temp
2015-Aug-01 15:32N 52°28' E 004°40'0 0.0
2015-Aug-01 14:33N 52°28' E 004°40'0 0.0
2015-Aug-01 13:33N 52°28' E 004°40'0 0.0
2015-Aug-01 12:31N 52°28' E 004°40'0 0.0
2015-Aug-01 11:32N 52°28' E 004°40'0 0.0
2015-Aug-01 10:29N 52°28' E 004°40'0 0.0
2015-Aug-01 09:33N 52°28' E 004°40'2 2.1
2015-Aug-01 08:33N 52°28' E 004°36'7 6.9
2015-Aug-01 07:34N 52°28' E 004°25'1212.3
2015-Aug-01 06:33N 52°28' E 004°05'8011.5
2015-Jul-31 23:33N 52°53' E 001°59'1111.5
2015-Jul-31 22:34N 52°59' E 001°42'1212.3
2015-Jul-31 21:33N 53°06' E 001°25'5112.7
2015-Jul-31 17:33N 53°32' E 000°13'9 9.1
2015-Jul-31 16:33N 53°35' W 000°01'2 1.9
2015-Jul-31 15:33N 53°35' W 000°04'0 0.0
2015-Jul-31 14:33N 53°35' W 000°04'0 0.0
2015-Jul-31 13:31N 53°35' W 000°04'0 0.0
2015-Jul-31 12:32N 53°35' W 000°04'0 0.0
2015-Jul-31 11:32N 53°35' W 000°04'0 0.0
2015-Jul-31 10:33N 53°35' W 000°04'0 0.0
2015-Jul-31 09:31N 53°35' W 000°04'0 0.0
2015-Jul-31 08:32N 53°35' W 000°04'0 0.0
2015-Jul-31 07:32N 53°35' W 000°04'0 0.0
2015-Jul-31 06:30N 53°35' W 000°04'0 0.0
2015-Jul-31 05:33N 53°35' W 000°04'0 0.0
2015-Jul-31 04:31N 53°35' W 000°04'0 0.0
2015-Jul-31 03:32N 53°35' W 000°04'0 0.0
2015-Jul-31 02:32N 53°35' W 000°04'0 0.0
2015-Jul-31 01:30N 53°35' W 000°04'0 0.0
2015-Jul-31 00:31N 53°35' W 000°04'0 0.0
2015-Jul-30 23:31N 53°35' W 000°04'0 0.0
2015-Jul-30 22:32N 53°35' W 000°04'0 0.0
2015-Jul-30 21:33N 53°35' W 000°04'0 0.0
2015-Jul-30 20:34N 53°35' W 000°04'0 0.0
2015-Jul-30 19:31N 53°35' W 000°04'0 0.0
2015-Jul-30 18:32N 53°35' W 000°04'0 0.0
2015-Jul-30 17:32N 53°35' W 000°04'0 0.0
2015-Jul-30 16:33N 53°35' W 000°04'0 0.4
2015-Jul-30 15:33N 53°35' W 000°04'6 6.1
2015-Jul-30 14:33N 53°34' E 000°06'8 8.2
2015-Jul-30 13:33N 53°36' E 000°19'9 8.6
2015-Jul-30 12:33N 53°45' E 000°23'1010.1
2015-Jul-30 11:33N 53°55' E 000°24'1110.6
2015-Jul-30 10:33N 54°05' E 000°26'6 5.8
2015-Jul-30 09:32N 54°11' E 000°31'  
2015-Jul-27 03:14N 66°36' E 011°44'244 9.2
2015-Jul-26 00:33N 69°39' E 018°58'1 0.6
2015-Jul-25 23:33N 69°39' E 018°58'0 0.0
2015-Jul-25 22:33N 69°39' E 018°58'0 0.0
2015-Jul-25 21:33N 69°39' E 018°58'0 0.0
2015-Jul-25 20:33N 69°39' E 018°58'0 0.0
2015-Jul-25 19:33N 69°39' E 018°58'0 0.0
2015-Jul-25 18:33N 69°39' E 018°58'0 0.0
2015-Jul-25 17:33N 69°39' E 018°58'0 0.0
2015-Jul-25 16:33N 69°39' E 018°58'0 0.0
2015-Jul-25 15:33N 69°39' E 018°58'2 1.9
2015-Jul-25 14:33N 69°38' E 018°57'0 0.0
2015-Jul-25 13:33N 69°38' E 018°57'0 0.0
2015-Jul-25 12:33N 69°38' E 018°57'0 0.0
2015-Jul-25 11:33N 69°38' E 018°57'0 0.0
2015-Jul-25 10:33N 69°38' E 018°57'0 0.0
2015-Jul-25 09:33N 69°38' E 018°57'0 0.0
2015-Jul-25 08:33N 69°38' E 018°57'0 0.0
2015-Jul-25 07:33N 69°38' E 018°57'0 0.0
2015-Jul-25 06:33N 69°38' E 018°57'0 0.0
2015-Jul-25 05:33N 69°38' E 018°57'0 0.0
2015-Jul-25 04:33N 69°38' E 018°57'0 0.0
2015-Jul-25 03:33N 69°38' E 018°57'0 0.0
2015-Jul-25 02:33N 69°38' E 018°57'0 0.0
2015-Jul-25 01:33N 69°38' E 018°57'0 0.0
2015-Jul-25 00:33N 69°38' E 018°57'2 0.0
2015-Jul-23 15:33N 69°39' E 018°59'147 9.0
2015-Jul-22 23:16N 67°50' E 014°26'2011.8
2015-Jul-22 21:33N 67°30' E 014°23'1111.6
2015-Jul-22 20:34N 67°18' E 014°17'1312.6
2015-Jul-22 19:34N 67°08' E 014°01'1212.4
2015-Jul-22 18:34N 66°59' E 013°37'  

Dump ship's entire track history